Time;durP1;ratioP1;P1;durP2;ratioP2;P2;SDS_P1;SDS_P2;PMS_P1;PMS_P2;Temp;Humidity;BMP_temperature;BMP_pressure;BME280_temperature;BME280_humidity;BME280_pressure;Samples;Min_cycle;Max_cycle;Signal;HPM_P1;HPM_P2
2022/11/29 00:01:05;;;;;;;7.80;6.40;;;16.20;65.20;;;;;;5077231;28;20450;-81
2022/11/29 00:03:34;;;;;;;6.70;5.97;;;16.20;65.30;;;;;;5075348;28;20467;-81
2022/11/29 00:06:05;;;;;;;12.63;6.10;;;16.20;65.30;;;;;;5075134;28;20470;-81
2022/11/29 00:08:34;;;;;;;7.73;5.80;;;16.20;65.40;;;;;;5074493;28;20450;-81
2022/11/29 00:11:05;;;;;;;11.03;6.10;;;16.20;65.30;;;;;;5076214;28;20449;-82
2022/11/29 00:13:33;;;;;;;7.70;6.20;;;16.20;65.30;;;;;;5074288;28;20475;-82
2022/11/29 00:16:03;;;;;;;7.07;6.37;;;16.20;65.40;;;;;;5074220;28;20465;-81
2022/11/29 00:18:31;;;;;;;8.23;5.97;;;16.20;65.40;;;;;;5077060;28;20959;-82
2022/11/29 00:21:00;;;;;;;7.97;6.10;;;16.20;65.20;;;;;;5076903;28;20434;-81
2022/11/29 00:23:28;;;;;;;7.03;5.70;;;16.20;65.20;;;;;;5075906;28;20446;-80
2022/11/29 00:26:02;;;;;;;7.17;5.90;;;16.30;65.40;;;;;;5080540;28;20454;-82
2022/11/29 00:28:30;;;;;;;6.77;6.07;;;16.20;65.20;;;;;;5078955;28;20465;-82
2022/11/29 00:30:58;;;;;;;6.50;5.87;;;16.20;65.30;;;;;;5074584;28;20445;-81
2022/11/29 00:33:26;;;;;;;6.20;5.60;;;16.30;65.30;;;;;;5070085;28;20450;-82
2022/11/29 00:35:55;;;;;;;7.13;6.00;;;16.30;65.30;;;;;;5073640;28;20464;-81
2022/11/29 00:38:24;;;;;;;6.63;5.93;;;16.20;65.30;;;;;;5069117;28;20442;-80
2022/11/29 00:40:53;;;;;;;6.23;5.63;;;16.20;65.30;;;;;;5075638;28;20437;-82
2022/11/29 00:43:24;;;;;;;8.13;5.40;;;16.30;65.50;;;;;;5074646;28;20442;-82
2022/11/29 00:45:52;;;;;;;6.53;5.43;;;16.20;65.40;;;;;;5075232;28;20508;-83
2022/11/29 00:48:20;;;;;;;6.70;5.40;;;16.20;65.20;;;;;;5075875;28;20441;-82
2022/11/29 00:50:49;;;;;;;7.23;5.50;;;16.20;65.20;;;;;;5074361;28;20468;-81
2022/11/29 00:53:17;;;;;;;7.93;6.07;;;16.20;65.40;;;;;;5073834;28;20461;-81
2022/11/29 00:55:47;;;;;;;6.70;5.73;;;16.20;65.40;;;;;;5076297;28;20457;-82
2022/11/29 00:58:15;;;;;;;7.20;5.47;;;16.30;65.40;;;;;;5077187;28;20454;-82
2022/11/29 01:00:44;;;;;;;6.90;5.90;;;16.30;65.50;;;;;;5072715;28;20454;-80
2022/11/29 01:03:11;;;;;;;7.63;5.83;;;16.20;65.50;;;;;;5071876;28;20449;-80
2022/11/29 01:05:41;;;;;;;6.70;5.87;;;16.20;65.30;;;;;;5073373;28;20472;-83
2022/11/29 01:08:09;;;;;;;6.40;5.57;;;16.20;65.40;;;;;;5077264;28;20940;-84
2022/11/29 01:10:38;;;;;;;6.07;5.47;;;16.20;65.40;;;;;;5075013;28;20461;-79
2022/11/29 01:13:07;;;;;;;6.50;5.83;;;16.20;65.40;;;;;;5073934;28;20468;-80
2022/11/29 01:15:35;;;;;;;6.13;5.50;;;16.30;65.50;;;;;;5075289;28;20465;-84
2022/11/29 01:18:04;;;;;;;6.10;5.23;;;16.30;65.30;;;;;;5075076;28;20450;-80
2022/11/29 01:20:32;;;;;;;7.07;5.80;;;16.30;65.30;;;;;;5071484;28;20449;-80
2022/11/29 01:23:00;;;;;;;5.67;5.10;;;16.30;65.40;;;;;;5068693;28;20452;-80
2022/11/29 01:25:28;;;;;;;6.07;5.43;;;16.30;65.30;;;;;;5073660;28;20555;-82
2022/11/29 01:27:56;;;;;;;6.17;5.60;;;16.20;65.40;;;;;;5072717;28;20476;-81
2022/11/29 01:30:26;;;;;;;6.60;5.80;;;16.20;65.40;;;;;;5074454;28;20450;-81
2022/11/29 01:32:53;;;;;;;6.73;5.80;;;16.20;65.40;;;;;;5072140;28;20456;-80
2022/11/29 01:35:21;;;;;;;6.43;5.73;;;16.30;65.40;;;;;;5073955;28;20450;-81
2022/11/29 01:37:50;;;;;;;6.03;5.37;;;16.20;65.40;;;;;;5054861;28;20470;-80
2022/11/29 01:40:18;;;;;;;14.20;7.30;;;16.20;65.30;;;;;;5070464;28;20446;-80
2022/11/29 01:42:46;;;;;;;8.43;6.43;;;16.20;65.60;;;;;;5073782;28;20449;-80
2022/11/29 01:45:21;;;;;;;9.40;6.80;;;16.30;65.50;;;;;;5072204;28;20469;-81
2022/11/29 01:47:51;;;;;;;11.43;7.40;;;16.20;65.40;;;;;;5071661;28;20509;-81
2022/11/29 01:50:19;;;;;;;12.77;7.23;;;16.30;65.40;;;;;;5069251;28;20472;-80
2022/11/29 01:52:47;;;;;;;9.77;7.00;;;16.20;65.50;;;;;;5072074;28;20537;-82
2022/11/29 01:55:15;;;;;;;7.87;6.53;;;16.20;65.50;;;;;;5071965;28;20452;-79
2022/11/29 01:57:44;;;;;;;8.43;6.47;;;16.20;65.60;;;;;;5073228;28;20564;-82
2022/11/29 02:00:14;;;;;;;9.90;6.63;;;16.20;65.40;;;;;;5071656;28;20465;-83
2022/11/29 02:02:43;;;;;;;6.97;6.03;;;16.20;65.50;;;;;;5070081;28;20461;-82
2022/11/29 02:05:13;;;;;;;9.17;6.70;;;16.30;66.20;;;;;;5070781;28;20469;-81
2022/11/29 02:07:43;;;;;;;7.47;6.47;;;16.30;65.50;;;;;;5068869;28;20469;-81
2022/11/29 02:10:11;;;;;;;7.43;6.67;;;16.30;65.60;;;;;;5071746;28;20481;-81
2022/11/29 02:12:44;;;;;;;8.13;6.87;;;16.30;65.50;;;;;;5070028;28;20441;-89
2022/11/29 02:15:22;;;;;;;10.37;6.47;;;16.30;65.30;;;;;;5081028;28;20441;-82
2022/11/29 02:18:01;;;;;;;10.17;6.80;;;16.30;65.50;;;;;;5072943;28;20492;-81
2022/11/29 02:20:46;;;;;;;9.80;7.10;;;16.30;65.50;;;;;;5073844;28;20450;-81
2022/11/29 02:23:41;;;;;;;8.77;6.73;;;16.30;65.50;;;;;;5072218;28;20442;-82
2022/11/29 02:26:15;;;;;;;10.97;7.10;;;16.30;65.30;;;;;;5075910;28;20543;-81
2022/11/29 02:29:29;;;;;;;9.83;6.83;;;16.30;65.40;;;;;;5078215;28;20456;-81
2022/11/29 02:32:19;;;;;;;7.20;6.20;;;16.30;65.50;;;;;;5072377;28;20450;-82
2022/11/29 02:34:53;;;;;;;8.00;6.97;;;16.30;65.50;;;;;;5044700;28;20842;-83
2022/11/29 02:37:47;;;;;;;9.60;6.90;;;16.30;65.60;;;;;;5073057;28;20475;-82
2022/11/29 02:40:27;;;;;;;7.80;6.30;;;16.30;65.50;;;;;;5071429;28;20445;-81
2022/11/29 02:43:10;;;;;;;7.40;6.23;;;16.20;65.60;;;;;;5076011;28;20452;-84
2022/11/29 02:45:52;;;;;;;8.83;7.17;;;16.20;65.60;;;;;;5075014;28;20469;-82
2022/11/29 02:48:29;;;;;;;8.50;6.40;;;16.30;65.60;;;;;;5075805;28;20540;-84
2022/11/29 02:51:02;;;;;;;8.50;5.93;;;16.30;65.50;;;;;;5076594;28;20460;-82
2022/11/29 02:53:32;;;;;;;8.40;6.20;;;16.30;65.70;;;;;;5074707;28;20453;-82
2022/11/29 02:56:05;;;;;;;7.13;6.10;;;16.30;65.60;;;;;;5074903;28;20469;-82
2022/11/29 02:58:36;;;;;;;9.10;6.83;;;16.30;65.50;;;;;;5073864;28;20468;-86
2022/11/29 03:01:09;;;;;;;10.43;6.80;;;16.30;65.50;;;;;;5075813;28;20445;-82
2022/11/29 03:03:38;;;;;;;7.00;5.77;;;16.30;65.50;;;;;;5074907;28;20475;-82
2022/11/29 03:06:15;;;;;;;9.30;6.70;;;16.30;65.50;;;;;;5076307;28;20469;-83
2022/11/29 03:08:46;;;;;;;8.37;6.33;;;16.30;65.50;;;;;;5076700;28;20448;-85
2022/11/29 03:11:18;;;;;;;10.33;6.60;;;16.20;65.40;;;;;;5076569;28;20442;-82
2022/11/29 03:13:51;;;;;;;7.77;6.30;;;16.30;65.30;;;;;;5074001;28;20450;-83
2022/11/29 03:16:28;;;;;;;9.07;6.70;;;16.30;65.50;;;;;;5073863;28;20476;-82
2022/11/29 03:19:04;;;;;;;7.70;5.93;;;16.20;65.30;;;;;;5073988;28;20457;-82
2022/11/29 03:21:41;;;;;;;7.33;6.03;;;16.30;65.30;;;;;;5073677;28;20448;-82
2022/11/29 03:24:12;;;;;;;9.70;7.10;;;16.20;65.30;;;;;;5069741;28;20449;-80
2022/11/29 03:26:42;;;;;;;8.70;6.70;;;16.20;65.40;;;;;;5068639;28;20482;-82
2022/11/29 03:29:12;;;;;;;12.10;7.27;;;16.20;65.40;;;;;;5071386;28;20461;-81
2022/11/29 03:31:42;;;;;;;9.83;7.10;;;16.20;65.40;;;;;;5074875;28;20449;-82
2022/11/29 03:34:13;;;;;;;7.70;6.70;;;16.20;65.50;;;;;;5075046;28;20446;-82
2022/11/29 03:36:45;;;;;;;8.37;6.80;;;16.20;65.40;;;;;;5073269;28;20465;-82
2022/11/29 03:39:17;;;;;;;6.60;6.00;;;16.20;65.40;;;;;;5074850;28;20442;-82
2022/11/29 03:41:48;;;;;;;9.10;6.20;;;16.20;65.60;;;;;;5071857;28;20446;-83
2022/11/29 03:44:17;;;;;;;9.93;6.43;;;16.20;65.40;;;;;;5073197;28;20936;-82
2022/11/29 03:46:50;;;;;;;7.67;6.10;;;16.20;65.60;;;;;;5072498;28;20474;-82
2022/11/29 03:49:21;;;;;;;9.47;7.20;;;16.20;65.50;;;;;;5073223;28;20476;-82
2022/11/29 03:51:59;;;;;;;7.27;5.87;;;16.20;65.40;;;;;;5072467;28;20461;-83
2022/11/29 03:54:33;;;;;;;6.63;5.93;;;16.30;65.50;;;;;;5070294;28;20958;-84
2022/11/29 03:57:02;;;;;;;8.83;6.73;;;16.20;65.40;;;;;;5071670;28;20476;-81
2022/11/29 03:59:43;;;;;;;7.27;6.30;;;16.20;65.40;;;;;;5067666;28;20457;-81
2022/11/29 04:02:44;;;;;;;9.20;6.87;;;16.20;65.40;;;;;;5070479;28;20453;-81
2022/11/29 04:05:51;;;;;;;9.00;6.37;;;16.30;65.50;;;;;;5071108;28;20454;-81
2022/11/29 04:09:00;;;;;;;8.83;6.63;;;16.30;65.60;;;;;;5025523;28;20454;-82
2022/11/29 04:11:54;;;;;;;10.73;7.10;;;16.30;65.50;;;;;;5069805;28;20449;-80
2022/11/29 04:14:30;;;;;;;10.07;6.93;;;16.20;65.40;;;;;;5069879;28;20461;-82
2022/11/29 04:17:26;;;;;;;7.73;6.30;;;16.20;65.40;;;;;;5072246;28;20483;-81
2022/11/29 04:20:19;;;;;;;7.43;6.20;;;16.20;65.60;;;;;;5072002;28;20454;-82
2022/11/29 04:23:17;;;;;;;7.90;6.37;;;16.20;65.70;;;;;;5071897;28;20453;-81
2022/11/29 04:26:33;;;;;;;8.97;6.70;;;16.30;65.60;;;;;;5072128;28;20500;-82
2022/11/29 04:29:39;;;;;;;7.60;6.33;;;16.30;65.70;;;;;;5055520;28;20453;-82
2022/11/29 04:32:22;;;;;;;8.63;6.60;;;16.20;65.70;;;;;;5073933;28;20450;-82
2022/11/29 04:35:20;;;;;;;10.10;6.80;;;16.20;65.70;;;;;;5069955;28;20987;-82
2022/11/29 04:38:14;;;;;;;8.87;6.77;;;16.20;65.50;;;;;;5058480;28;20477;-82
2022/11/29 04:40:56;;;;;;;7.03;6.10;;;16.20;65.50;;;;;;5071063;28;20453;-82
2022/11/29 04:44:15;;;;;;;7.57;5.97;;;16.30;65.70;;;;;;5068450;28;20457;-84
2022/11/29 04:47:00;;;;;;;7.27;6.23;;;16.20;65.60;;;;;;5039745;28;20537;-82
2022/11/29 04:49:39;;;;;;;9.00;7.10;;;16.20;65.60;;;;;;5072510;28;20441;-81
2022/11/29 04:52:19;;;;;;;9.77;7.03;;;16.20;65.70;;;;;;5069914;28;20536;-82
2022/11/29 04:54:49;;;;;;;9.87;6.60;;;16.30;65.80;;;;;;5072577;28;20457;-82
2022/11/29 04:57:21;;;;;;;9.80;6.77;;;16.20;65.80;;;;;;5069483;28;20467;-84
2022/11/29 04:59:51;;;;;;;9.10;6.87;;;16.20;65.60;;;;;;5071200;28;20454;-82
2022/11/29 05:02:29;;;;;;;9.50;7.00;;;16.30;65.60;;;;;;5070335;28;20456;-82
2022/11/29 05:05:00;;;;;;;8.17;7.00;;;16.30;65.60;;;;;;5070908;28;20477;-87
2022/11/29 05:07:32;;;;;;;10.63;7.40;;;16.30;65.70;;;;;;5067516;28;20473;-83
2022/11/29 05:10:17;;;;;;;8.60;6.63;;;16.30;65.60;;;;;;5070796;28;20454;-82
2022/11/29 05:12:48;;;;;;;9.10;6.40;;;16.30;65.40;;;;;;5070333;28;20449;-82
2022/11/29 05:15:39;;;;;;;7.87;6.90;;;16.30;65.50;;;;;;5067542;28;20476;-82
2022/11/29 05:18:13;;;;;;;9.60;7.43;;;16.30;65.50;;;;;;5069360;28;20511;-82
2022/11/29 05:20:45;;;;;;;9.23;7.07;;;16.30;65.60;;;;;;5080293;28;20468;-83
2022/11/29 05:23:23;;;;;;;8.60;6.57;;;16.30;65.60;;;;;;5067015;28;20461;-83
2022/11/29 05:25:54;;;;;;;7.17;6.37;;;16.30;65.50;;;;;;5071491;28;20462;-82
2022/11/29 05:28:25;;;;;;;8.00;6.40;;;16.30;65.60;;;;;;5075552;28;20442;-82
2022/11/29 05:31:08;;;;;;;8.80;6.53;;;16.30;65.30;;;;;;5072167;28;20461;-82
2022/11/29 05:33:48;;;;;;;8.77;6.40;;;16.30;65.50;;;;;;5072801;28;20464;-83
2022/11/29 05:36:21;;;;;;;9.00;6.70;;;16.30;65.60;;;;;;5067463;28;20470;-82
2022/11/29 05:39:00;;;;;;;10.07;7.60;;;16.30;65.60;;;;;;5072760;28;20454;-81
2022/11/29 05:41:53;;;;;;;10.20;7.20;;;16.30;65.50;;;;;;5068328;28;20453;-82
2022/11/29 05:44:26;;;;;;;8.63;6.03;;;16.30;65.50;;;;;;5068871;28;20473;-82
2022/11/29 05:46:55;;;;;;;9.60;6.90;;;16.30;65.50;;;;;;5069701;28;20496;-82
2022/11/29 05:49:29;;;;;;;8.77;6.70;;;16.30;65.50;;;;;;5070176;28;20445;-82
2022/11/29 05:52:03;;;;;;;9.73;7.13;;;16.30;65.50;;;;;;5071544;28;20464;-82
2022/11/29 05:54:32;;;;;;;8.60;6.70;;;16.30;65.50;;;;;;5071514;28;20453;-86
2022/11/29 05:57:08;;;;;;;8.60;6.60;;;16.30;65.50;;;;;;5071316;28;20469;-85
2022/11/29 05:59:37;;;;;;;7.60;6.60;;;16.30;65.50;;;;;;5066018;28;20461;-82
2022/11/29 06:02:14;;;;;;;10.43;7.40;;;16.30;65.50;;;;;;5073335;28;20456;-81
2022/11/29 06:05:02;;;;;;;7.73;6.37;;;16.30;65.50;;;;;;5070179;28;20514;-82
2022/11/29 06:07:34;;;;;;;8.50;6.47;;;16.30;65.60;;;;;;5068602;28;20478;-83
2022/11/29 06:10:04;;;;;;;9.83;7.00;;;16.30;65.60;;;;;;5071185;28;20484;-82
2022/11/29 06:12:34;;;;;;;9.20;6.63;;;16.30;65.60;;;;;;5070700;28;20453;-82
2022/11/29 06:15:28;;;;;;;11.30;6.70;;;16.30;65.60;;;;;;5070359;28;20544;-83
2022/11/29 06:18:07;;;;;;;9.13;6.90;;;16.30;65.50;;;;;;5069219;28;20466;-82
2022/11/29 06:20:48;;;;;;;8.30;7.00;;;16.30;65.50;;;;;;5069713;28;20456;-82
2022/11/29 06:23:35;;;;;;;8.40;7.00;;;16.30;65.60;;;;;;5065616;28;20449;-82
2022/11/29 06:26:12;;;;;;;9.57;6.77;;;16.30;65.60;;;;;;5058623;28;20469;-83
2022/11/29 06:28:48;;;;;;;10.77;7.60;;;16.30;65.60;;;;;;5068892;28;20488;-82
2022/11/29 06:31:17;;;;;;;9.40;6.40;;;16.20;65.50;;;;;;5069541;28;20460;-82
2022/11/29 06:33:51;;;;;;;8.53;7.10;;;16.30;65.60;;;;;;5070862;28;20454;-84
2022/11/29 06:36:23;;;;;;;8.20;6.73;;;16.30;65.50;;;;;;5070998;28;20473;-82
2022/11/29 06:38:51;;;;;;;8.90;6.90;;;16.30;65.70;;;;;;5071378;28;20446;-82
2022/11/29 06:41:21;;;;;;;10.43;7.50;;;16.30;65.60;;;;;;5071596;28;20480;-82
2022/11/29 06:43:50;;;;;;;9.00;6.67;;;16.30;65.50;;;;;;5072010;28;20457;-82
2022/11/29 06:46:24;;;;;;;11.60;7.37;;;16.30;65.50;;;;;;5072085;28;20469;-81
2022/11/29 06:48:53;;;;;;;10.13;6.87;;;16.30;65.50;;;;;;5071452;28;20473;-84
2022/11/29 06:51:33;;;;;;;10.23;7.37;;;16.30;65.50;;;;;;5072859;28;20461;-82
2022/11/29 06:54:07;;;;;;;10.90;7.53;;;16.30;65.50;;;;;;5072055;28;20453;-81
2022/11/29 06:56:38;;;;;;;8.50;6.70;;;16.20;65.60;;;;;;5072924;28;20475;-84
2022/11/29 06:59:12;;;;;;;7.90;6.83;;;16.30;65.70;;;;;;5070972;28;20487;-82
2022/11/29 07:01:41;;;;;;;8.80;7.30;;;16.30;65.50;;;;;;5071818;28;20507;-82
2022/11/29 07:04:20;;;;;;;8.93;7.00;;;16.30;65.60;;;;;;5069423;28;20452;-82
2022/11/29 07:06:50;;;;;;;10.37;7.53;;;16.30;65.50;;;;;;5065700;28;20465;-82
2022/11/29 07:09:20;;;;;;;8.33;6.90;;;16.30;65.50;;;;;;5056952;28;20442;-82
2022/11/29 07:11:48;;;;;;;10.50;7.40;;;16.30;65.60;;;;;;5061450;28;20426;-80
2022/11/29 07:14:17;;;;;;;10.93;8.10;;;16.30;65.50;;;;;;5077972;28;20453;-82
2022/11/29 07:16:49;;;;;;;8.90;7.03;;;16.30;65.50;;;;;;5076347;28;20454;-81
2022/11/29 07:19:27;;;;;;;8.97;6.93;;;16.30;65.50;;;;;;5061981;28;20484;-83
2022/11/29 07:22:05;;;;;;;10.30;7.07;;;16.30;65.50;;;;;;5066765;28;20438;-84
2022/11/29 07:24:40;;;;;;;8.50;6.90;;;16.30;65.50;;;;;;5081955;28;20443;-86
2022/11/29 07:27:11;;;;;;;8.80;6.80;;;16.30;65.50;;;;;;5073011;28;20460;-82
2022/11/29 07:29:42;;;;;;;8.40;7.20;;;16.30;65.40;;;;;;5075679;28;20452;-80
2022/11/29 07:32:14;;;;;;;10.63;7.20;;;16.30;65.50;;;;;;5089813;28;20447;-82
2022/11/29 07:34:47;;;;;;;8.93;7.03;;;16.30;65.50;;;;;;5093611;28;20422;-82
2022/11/29 07:37:20;;;;;;;8.10;6.70;;;16.30;65.50;;;;;;5088047;28;20450;-84
2022/11/29 07:39:52;;;;;;;11.13;6.83;;;16.40;65.60;;;;;;5086213;28;20462;-82
2022/11/29 07:42:24;;;;;;;9.93;7.23;;;16.30;65.50;;;;;;5080550;28;20440;-90
2022/11/29 07:44:59;;;;;;;11.00;7.57;;;16.40;65.50;;;;;;5092199;28;20438;-84
2022/11/29 07:47:27;;;;;;;12.50;8.20;;;16.40;65.50;;;;;;5092367;28;20441;-86
2022/11/29 07:50:02;;;;;;;13.37;8.73;;;16.40;66.10;;;;;;5095408;28;20441;-88
2022/11/29 07:52:31;;;;;;;14.73;9.60;;;16.30;65.30;;;;;;5092303;28;20437;-82
2022/11/29 07:54:59;;;;;;;17.73;9.53;;;16.40;65.10;;;;;;5084467;28;20462;-85
2022/11/29 07:57:28;;;;;;;18.73;11.03;;;16.30;65.00;;;;;;5098715;28;20522;-82
2022/11/29 07:59:55;;;;;;;17.97;10.83;;;16.40;65.10;;;;;;5093404;28;20528;-81
2022/11/29 08:02:28;;;;;;;17.60;10.60;;;16.40;65.10;;;;;;5086707;28;20537;-82
2022/11/29 08:04:56;;;;;;;20.60;11.83;;;16.30;64.80;;;;;;5080466;28;20454;-82
2022/11/29 08:07:24;;;;;;;15.77;10.63;;;16.30;65.00;;;;;;5079119;28;20446;-83
2022/11/29 08:09:53;;;;;;;22.23;11.23;;;16.30;65.10;;;;;;5080159;28;20437;-82
2022/11/29 08:12:21;;;;;;;20.33;11.57;;;16.40;65.20;;;;;;5080154;28;20442;-82
2022/11/29 08:14:49;;;;;;;21.33;12.00;;;16.40;65.10;;;;;;5080102;28;20446;-82
2022/11/29 08:17:18;;;;;;;19.07;11.13;;;16.40;65.20;;;;;;5079136;28;20470;-80
2022/11/29 08:19:46;;;;;;;22.17;11.60;;;16.40;65.20;;;;;;5078893;28;20453;-81
2022/11/29 08:22:14;;;;;;;18.00;11.03;;;16.40;65.30;;;;;;5080090;28;20451;-84
2022/11/29 08:24:42;;;;;;;18.40;11.50;;;16.40;65.50;;;;;;5089794;28;20449;-82
2022/11/29 08:27:13;;;;;;;16.73;11.07;;;16.40;65.30;;;;;;5086229;28;20466;-82
2022/11/29 08:29:40;;;;;;;18.90;11.50;;;16.40;65.30;;;;;;5084916;28;20476;-82
2022/11/29 08:32:09;;;;;;;18.87;11.23;;;16.40;65.30;;;;;;5085580;28;20440;-82
2022/11/29 08:34:37;;;;;;;19.27;11.53;;;16.40;65.30;;;;;;5085391;28;20446;-82
2022/11/29 08:37:05;;;;;;;22.53;11.27;;;16.40;65.40;;;;;;5083570;28;20513;-84
2022/11/29 08:39:33;;;;;;;16.97;10.30;;;16.40;65.60;;;;;;5084768;28;20437;-82
2022/11/29 08:42:01;;;;;;;18.33;11.17;;;16.40;65.60;;;;;;5084352;28;20442;-83
2022/11/29 08:44:31;;;;;;;18.53;10.40;;;16.50;65.60;;;;;;5084010;28;20445;-82
2022/11/29 08:55:12;;;;;;;17.90;10.13;;;16.50;65.90;;;;;;5083048;28;20525;-82
2022/11/29 08:57:40;;;;;;;17.80;10.37;;;16.50;66.00;;;;;;5082533;28;20461;-82
2022/11/29 09:00:11;;;;;;;15.80;10.07;;;16.50;65.70;;;;;;5082284;28;20468;-82
2022/11/29 09:02:39;;;;;;;15.60;10.00;;;16.50;65.70;;;;;;5082940;28;20468;-83
2022/11/29 09:05:08;;;;;;;16.40;9.80;;;16.50;65.90;;;;;;5083575;28;20441;-83
2022/11/29 09:07:36;;;;;;;18.10;9.83;;;16.50;65.80;;;;;;5082069;28;20469;-82
2022/11/29 09:10:07;;;;;;;20.03;10.50;;;16.60;65.80;;;;;;5081480;28;20471;-83
2022/11/29 09:12:35;;;;;;;16.60;10.20;;;16.60;65.80;;;;;;5081575;28;20545;-85
2022/11/29 09:15:03;;;;;;;18.30;9.90;;;16.60;65.80;;;;;;5081623;28;20445;-83
2022/11/29 09:17:33;;;;;;;18.17;10.57;;;16.50;65.70;;;;;;5081738;28;20466;-84
2022/11/29 09:20:02;;;;;;;18.80;10.47;;;16.60;65.80;;;;;;5081043;28;20442;-83
2022/11/29 09:22:30;;;;;;;18.00;9.80;;;16.60;65.80;;;;;;5080346;28;20445;-82
2022/11/29 09:24:59;;;;;;;17.57;10.10;;;16.60;65.70;;;;;;5078952;28;20442;-82
2022/11/29 09:27:27;;;;;;;13.20;9.10;;;16.60;65.70;;;;;;5079080;28;20462;-83
2022/11/29 09:29:55;;;;;;;15.43;9.30;;;16.60;65.70;;;;;;5078586;28;20471;-84
2022/11/29 09:32:23;;;;;;;17.80;9.70;;;16.60;65.80;;;;;;5079733;28;20452;-83
2022/11/29 09:34:53;;;;;;;15.17;9.70;;;16.60;65.80;;;;;;5079665;28;20446;-83
2022/11/29 09:37:21;;;;;;;15.80;9.77;;;16.60;65.90;;;;;;5079268;28;20537;-83
2022/11/29 09:39:49;;;;;;;17.30;8.90;;;16.60;65.80;;;;;;5079676;28;20445;-85
2022/11/29 09:42:27;;;;;;;15.93;10.10;;;16.60;65.70;;;;;;5078544;28;20449;-83
2022/11/29 09:45:01;;;;;;;17.87;9.30;;;16.70;65.70;;;;;;5078781;28;20451;-82
2022/11/29 09:47:56;;;;;;;14.10;9.73;;;16.60;65.80;;;;;;5078609;28;20476;-83
2022/11/29 09:50:28;;;;;;;15.23;10.20;;;16.70;65.70;;;;;;5079550;28;20477;-82
2022/11/29 09:53:04;;;;;;;14.47;9.10;;;16.60;65.70;;;;;;5079433;28;20446;-83
2022/11/29 09:55:44;;;;;;;12.43;9.17;;;16.60;65.60;;;;;;5079227;28;20441;-83
2022/11/29 09:58:13;;;;;;;16.00;9.90;;;16.70;65.80;;;;;;5078822;28;20457;-82
2022/11/29 10:00:45;;;;;;;16.23;10.00;;;16.60;65.80;;;;;;5079735;28;20445;-81
2022/11/29 10:03:16;;;;;;;17.17;9.97;;;16.60;65.80;;;;;;5080055;28;20445;-82
2022/11/29 10:05:48;;;;;;;17.33;9.53;;;16.60;65.80;;;;;;5080713;28;20948;-81
2022/11/29 10:08:20;;;;;;;17.27;10.00;;;16.70;65.80;;;;;;5080863;28;20442;-82
2022/11/29 10:10:49;;;;;;;13.70;8.77;;;16.70;65.70;;;;;;5078765;28;20445;-82
2022/11/29 10:13:18;;;;;;;16.77;10.07;;;16.70;65.60;;;;;;5080928;28;20442;-82
2022/11/29 10:15:48;;;;;;;17.73;10.63;;;16.70;65.80;;;;;;5082414;28;20452;-82
2022/11/29 10:18:18;;;;;;;14.20;9.43;;;16.70;65.70;;;;;;5083181;28;20443;-81
2022/11/29 10:20:49;;;;;;;13.23;9.03;;;16.70;65.70;;;;;;5080371;28;20444;-82
2022/11/29 10:23:21;;;;;;;15.03;9.77;;;16.70;66.30;;;;;;5081632;28;20437;-81
2022/11/29 10:25:49;;;;;;;14.60;9.50;;;16.70;65.80;;;;;;5080305;28;20445;-82
2022/11/29 10:28:19;;;;;;;16.23;9.50;;;16.70;65.60;;;;;;5080043;28;20444;-82
2022/11/29 10:30:47;;;;;;;16.47;10.10;;;16.70;65.80;;;;;;5078185;28;20474;-83
2022/11/29 10:33:17;;;;;;;14.47;9.73;;;16.60;65.80;;;;;;5082497;28;20502;-82
2022/11/29 10:35:45;;;;;;;12.53;9.00;;;16.70;65.80;;;;;;5078087;28;20453;-82
2022/11/29 10:38:15;;;;;;;13.80;9.57;;;16.70;65.80;;;;;;5076839;28;20445;-82
2022/11/29 10:40:59;;;;;;;15.67;10.00;;;16.70;65.80;;;;;;5079209;28;20446;-82
2022/11/29 10:43:27;;;;;;;13.80;10.40;;;16.70;65.60;;;;;;5079797;28;20453;-85
2022/11/29 10:45:55;;;;;;;15.47;9.03;;;16.70;65.50;;;;;;5080663;28;20445;-82
2022/11/29 10:48:25;;;;;;;15.23;9.57;;;16.70;65.90;;;;;;5082364;28;20452;-85
2022/11/29 10:50:53;;;;;;;14.60;9.50;;;16.70;65.50;;;;;;5080760;28;20480;-82
2022/11/29 10:53:24;;;;;;;15.10;9.37;;;16.70;65.60;;;;;;5080382;28;20453;-82
2022/11/29 10:55:55;;;;;;;15.03;9.70;;;16.70;65.70;;;;;;5081832;28;20520;-82
2022/11/29 10:58:24;;;;;;;16.43;9.13;;;16.70;65.60;;;;;;5082627;28;20446;-82
2022/11/29 11:00:56;;;;;;;14.43;9.37;;;16.80;65.70;;;;;;5081608;28;20491;-82
2022/11/29 11:03:28;;;;;;;16.33;9.80;;;16.80;65.60;;;;;;5082322;28;20445;-82
2022/11/29 11:06:00;;;;;;;13.83;9.50;;;16.80;65.80;;;;;;5083571;28;20443;-82
2022/11/29 11:08:30;;;;;;;15.80;9.20;;;16.70;65.60;;;;;;5085316;28;20456;-81
2022/11/29 11:10:59;;;;;;;14.07;9.00;;;16.70;65.70;;;;;;5085901;28;20473;-82
2022/11/29 11:13:30;;;;;;;15.30;9.13;;;16.70;65.70;;;;;;5084834;28;20446;-82
2022/11/29 11:15:58;;;;;;;13.80;8.83;;;16.70;65.60;;;;;;5084956;28;20445;-83
2022/11/29 11:18:28;;;;;;;14.07;9.10;;;16.70;65.60;;;;;;5085199;28;20441;-81
2022/11/29 11:20:57;;;;;;;14.13;9.17;;;16.70;65.70;;;;;;5082608;28;20434;-83
2022/11/29 11:23:26;;;;;;;12.80;8.43;;;16.80;65.90;;;;;;5082822;28;20453;-82
2022/11/29 11:26:01;;;;;;;17.00;9.63;;;16.80;65.90;;;;;;5089804;28;20721;-82
2022/11/29 11:28:30;;;;;;;10.17;7.70;;;16.80;65.70;;;;;;5088943;28;20540;-83
2022/11/29 11:31:00;;;;;;;12.27;8.63;;;16.80;65.90;;;;;;5087217;28;20473;-84
2022/11/29 11:33:29;;;;;;;13.67;9.17;;;16.70;65.60;;;;;;5085774;28;20449;-82
2022/11/29 11:36:05;;;;;;;12.50;8.57;;;16.80;65.90;;;;;;5085797;28;20448;-82
2022/11/29 11:38:34;;;;;;;13.60;9.47;;;16.80;65.70;;;;;;5086772;28;20448;-82
2022/11/29 11:41:15;;;;;;;13.90;9.23;;;16.80;65.80;;;;;;5086294;28;20428;-81
2022/11/29 11:43:49;;;;;;;12.07;8.13;;;16.80;65.80;;;;;;5085960;28;20450;-83
2022/11/29 11:46:17;;;;;;;12.77;8.37;;;16.80;65.90;;;;;;5086499;28;20473;-81
2022/11/29 11:48:46;;;;;;;13.50;8.60;;;16.80;66.10;;;;;;5086972;28;20446;-84
2022/11/29 11:51:20;;;;;;;14.77;8.80;;;16.80;65.80;;;;;;5086596;28;20470;-84
2022/11/29 11:53:50;;;;;;;14.30;8.00;;;16.80;65.80;;;;;;5085370;28;20449;-82
2022/11/29 11:56:20;;;;;;;14.60;8.93;;;16.80;66.00;;;;;;5082974;28;20461;-81
2022/11/29 11:58:50;;;;;;;13.53;8.40;;;16.80;66.00;;;;;;5084890;28;20414;-84
2022/11/29 12:01:24;;;;;;;13.40;8.90;;;16.80;66.00;;;;;;5083432;28;20438;-81
2022/11/29 12:03:56;;;;;;;14.27;8.67;;;16.80;65.80;;;;;;5082370;28;20445;-81
2022/11/29 12:06:46;;;;;;;13.53;8.63;;;16.80;65.70;;;;;;5081589;28;20458;-82
2022/11/29 12:09:21;;;;;;;11.10;7.97;;;16.80;65.80;;;;;;5078687;28;20437;-81
2022/11/29 12:11:54;;;;;;;12.10;8.23;;;16.80;65.80;;;;;;5081442;28;20469;-83
2022/11/29 12:14:26;;;;;;;12.13;8.50;;;16.80;65.80;;;;;;5081401;28;20468;-83
2022/11/29 12:16:58;;;;;;;10.27;8.13;;;16.80;66.00;;;;;;5082455;28;20462;-82
2022/11/29 12:19:29;;;;;;;11.07;8.30;;;16.80;65.90;;;;;;5083134;28;20441;-84
2022/11/29 12:21:59;;;;;;;12.03;8.60;;;16.80;65.70;;;;;;5081672;28;20445;-83
2022/11/29 12:24:29;;;;;;;11.73;8.33;;;16.80;65.80;;;;;;5082805;28;20456;-81
2022/11/29 12:27:00;;;;;;;10.87;8.40;;;16.80;65.80;;;;;;5081840;28;20556;-84
2022/11/29 12:29:30;;;;;;;11.83;7.80;;;16.80;65.80;;;;;;5083049;28;20473;-81
2022/11/29 12:32:03;;;;;;;13.47;8.60;;;16.80;66.00;;;;;;5082059;28;20477;-81
2022/11/29 12:34:46;;;;;;;12.00;8.43;;;16.80;65.90;;;;;;5082657;28;20446;-81
2022/11/29 12:37:16;;;;;;;11.47;8.07;;;16.80;66.00;;;;;;5082167;28;20469;-83
2022/11/29 12:39:51;;;;;;;15.60;8.33;;;16.80;65.90;;;;;;5082585;28;20448;-80
2022/11/29 12:42:29;;;;;;;11.73;7.80;;;16.80;65.80;;;;;;5082038;28;20445;-81
2022/11/29 12:45:01;;;;;;;11.00;7.97;;;16.90;65.90;;;;;;5082381;28;20452;-83
2022/11/29 12:47:36;;;;;;;11.57;8.03;;;16.90;66.00;;;;;;5081656;28;20464;-81
2022/11/29 12:50:14;;;;;;;10.80;7.73;;;16.90;66.00;;;;;;5082269;28;20460;-82
2022/11/29 12:52:45;;;;;;;12.80;8.27;;;16.80;65.90;;;;;;5083867;28;20452;-83
2022/11/29 12:55:18;;;;;;;9.50;6.80;;;16.80;65.80;;;;;;5083535;28;20434;-83
2022/11/29 12:57:50;;;;;;;11.20;7.47;;;16.90;65.90;;;;;;5083090;28;20462;-80
2022/11/29 13:00:19;;;;;;;12.20;8.23;;;16.90;66.00;;;;;;5082659;28;20445;-81
2022/11/29 13:02:55;;;;;;;9.80;7.20;;;16.90;66.00;;;;;;5083063;28;20441;-80
2022/11/29 13:05:43;;;;;;;8.60;7.27;;;16.90;65.90;;;;;;5081525;28;20456;-82
2022/11/29 13:08:21;;;;;;;9.73;7.20;;;16.90;66.00;;;;;;5081556;28;20437;-81
2022/11/29 13:10:58;;;;;;;13.77;8.37;;;16.90;66.10;;;;;;5080587;28;20500;-79
2022/11/29 13:13:32;;;;;;;11.20;8.00;;;16.90;65.90;;;;;;5077776;28;20416;-82
2022/11/29 13:16:03;;;;;;;10.03;7.47;;;16.90;66.00;;;;;;5077808;28;20473;-82
2022/11/29 13:18:33;;;;;;;10.10;7.37;;;16.90;65.90;;;;;;5080716;28;20437;-82
2022/11/29 13:21:04;;;;;;;10.93;8.33;;;16.90;66.00;;;;;;5081817;28;20403;-80